Fort Worth, TX

6:14 AM CDT on July 24, 2017 (GMT -0500)
Alliance Landscape | | Change Station

Elev 682 ft 32.98 °N, 97.31 °W | Updated 31 seconds ago

Overcast
Overcast
72.8 °F
Feels Like 71 °F
N
0.0
Wind Variable Wind from WSW

Today
High -- | Low -- °F
--% Chance of Precip.
Yesterday
High -- | Low -- °F
Precip. -- in
Pressure 29.83 in
Visibility 10.0 miles
Clouds Overcast 12000 ft
Heat Index 71 °F
Dew Point 69 °F
Humidity 88%
Rainfall 0.00 in
Snow Depth Not available.
6:37 AM 8:33 PM
New Moon, 2% visible
METAR KAFW 241053Z 17003KT 10SM OVC120 23/22 A2988 RMK AO2 RAE0959 SLP101 P0000 T02280222
Pressure 29.83 in
Visibility 10.0 miles
Clouds Overcast 12000 ft
Heat Index 71 °F
Dew Point 69 °F
Humidity 88%
Rainfall 0.00 in
Snow Depth Not available.
6:37 AM 8:33 PM
New Moon, 2% visible
METAR KAFW 241053Z 17003KT 10SM OVC120 23/22 A2988 RMK AO2 RAE0959 SLP101 P0000 T02280222

Get Severe Weather Alerts

Thanks for signing up!

Be on the lookout for a verification email in your inbox.

You'll start receiving the daily forecast at 6 AM.

×

10-Day Weather Forecast

Almanac

Astronomy

Jul. 24, 2017 Rise Set
Actual Time
Civil Twilight
Nautical Twilight
Astronomical Twilight
Moon
Length of Visible Light
Length of Day
Tomorrow will be .
, % of the Moon is Illuminated

Today's Extremes

State Highs State Lows

Community

WunderPhotos

Category 6

Welcome to Category 6. This is the collective home for Weather Underground's featured writeups by Dr. Jeff Masters (right), Bob Henson (left), Chris Burt, and other regular contributors.

Nearby

Air Quality

  Air Quality AQ Index Pollutant
Not available.

Snow Depth

Station Depth Elevation

Earthquake Activity

City Distance Mag. Time & Date
Minimum magnitude displayed is 2.5.

Coastal Water Temperatures

Place Temperature

Stations

Nearby Weather Stations

Station Location Temp. Windchill Dew Point Humidity Wind Precip. Elev Updated Type
                   

Watches & Warnings

There are currently no watches in effect.